sensor_id;sensor_type;location;lat;lon;timestamp;P1;durP1;ratioP1;P2;durP2;ratioP2
22922;SDS011;11627;51.322;22.816;2022-10-15T00:01:43;37.67;;;19.48;;
22922;SDS011;11627;51.322;22.816;2022-10-15T00:04:09;35.35;;;20.38;;
22922;SDS011;11627;51.322;22.816;2022-10-15T00:06:35;32.50;;;18.63;;
22922;SDS011;11627;51.322;22.816;2022-10-15T00:09:00;31.70;;;17.70;;
22922;SDS011;11627;51.322;22.816;2022-10-15T00:11:27;32.42;;;18.92;;
22922;SDS011;11627;51.322;22.816;2022-10-15T00:13:54;37.67;;;19.65;;
22922;SDS011;11627;51.322;22.816;2022-10-15T00:16:22;41.30;;;21.40;;
22922;SDS011;11627;51.322;22.816;2022-10-15T00:18:49;37.28;;;18.90;;
22922;SDS011;11627;51.322;22.816;2022-10-15T00:21:17;36.80;;;19.20;;
22922;SDS011;11627;51.322;22.816;2022-10-15T00:23:44;36.45;;;19.80;;
22922;SDS011;11627;51.322;22.816;2022-10-15T00:26:12;36.40;;;19.15;;
22922;SDS011;11627;51.322;22.816;2022-10-15T00:28:39;36.70;;;20.08;;
22922;SDS011;11627;51.322;22.816;2022-10-15T00:31:15;35.80;;;19.83;;
22922;SDS011;11627;51.322;22.816;2022-10-15T00:33:42;34.78;;;19.48;;
22922;SDS011;11627;51.322;22.816;2022-10-15T00:36:16;35.35;;;20.13;;
22922;SDS011;11627;51.322;22.816;2022-10-15T00:38:43;35.10;;;18.50;;
22922;SDS011;11627;51.322;22.816;2022-10-15T00:41:13;34.10;;;18.70;;
22922;SDS011;11627;51.322;22.816;2022-10-15T00:43:43;36.00;;;18.45;;
22922;SDS011;11627;51.322;22.816;2022-10-15T00:48:54;37.40;;;17.85;;
22922;SDS011;11627;51.322;22.816;2022-10-15T00:51:28;34.90;;;19.17;;
22922;SDS011;11627;51.322;22.816;2022-10-15T00:53:57;34.67;;;18.25;;
22922;SDS011;11627;51.322;22.816;2022-10-15T00:56:23;35.63;;;18.30;;
22922;SDS011;11627;51.322;22.816;2022-10-15T00:58:51;33.38;;;18.27;;
22922;SDS011;11627;51.322;22.816;2022-10-15T01:01:18;30.67;;;17.75;;
22922;SDS011;11627;51.322;22.816;2022-10-15T01:03:44;36.80;;;18.65;;
22922;SDS011;11627;51.322;22.816;2022-10-15T01:06:10;34.22;;;18.35;;
22922;SDS011;11627;51.322;22.816;2022-10-15T01:08:36;37.28;;;19.00;;
22922;SDS011;11627;51.322;22.816;2022-10-15T01:16:54;33.55;;;18.50;;
22922;SDS011;11627;51.322;22.816;2022-10-15T01:29:12;33.92;;;17.63;;
22922;SDS011;11627;51.322;22.816;2022-10-15T01:34:50;34.30;;;17.83;;
22922;SDS011;11627;51.322;22.816;2022-10-15T01:41:09;31.25;;;18.17;;
22922;SDS011;11627;51.322;22.816;2022-10-15T01:43:49;33.72;;;18.05;;
22922;SDS011;11627;51.322;22.816;2022-10-15T01:46:23;34.53;;;17.75;;
22922;SDS011;11627;51.322;22.816;2022-10-15T01:49:04;34.10;;;17.95;;
22922;SDS011;11627;51.322;22.816;2022-10-15T01:51:33;32.25;;;17.52;;
22922;SDS011;11627;51.322;22.816;2022-10-15T01:54:03;32.35;;;17.98;;
22922;SDS011;11627;51.322;22.816;2022-10-15T01:56:31;28.77;;;16.50;;
22922;SDS011;11627;51.322;22.816;2022-10-15T01:59:00;28.27;;;17.45;;
22922;SDS011;11627;51.322;22.816;2022-10-15T02:01:27;33.15;;;17.90;;
22922;SDS011;11627;51.322;22.816;2022-10-15T02:03:52;30.35;;;16.98;;
22922;SDS011;11627;51.322;22.816;2022-10-15T02:06:29;28.90;;;16.98;;
22922;SDS011;11627;51.322;22.816;2022-10-15T02:09:14;29.77;;;16.85;;
22922;SDS011;11627;51.322;22.816;2022-10-15T02:14:32;29.40;;;15.60;;
22922;SDS011;11627;51.322;22.816;2022-10-15T02:17:08;28.88;;;15.95;;
22922;SDS011;11627;51.322;22.816;2022-10-15T02:19:51;28.88;;;16.27;;
22922;SDS011;11627;51.322;22.816;2022-10-15T02:22:25;26.58;;;15.75;;
22922;SDS011;11627;51.322;22.816;2022-10-15T02:24:57;29.27;;;15.73;;
22922;SDS011;11627;51.322;22.816;2022-10-15T02:27:30;32.85;;;15.95;;
22922;SDS011;11627;51.322;22.816;2022-10-15T02:29:59;29.70;;;16.35;;
22922;SDS011;11627;51.322;22.816;2022-10-15T02:32:27;29.83;;;16.23;;
22922;SDS011;11627;51.322;22.816;2022-10-15T02:34:55;26.70;;;15.05;;
22922;SDS011;11627;51.322;22.816;2022-10-15T02:37:23;25.02;;;14.10;;
22922;SDS011;11627;51.322;22.816;2022-10-15T02:39:51;25.58;;;14.75;;
22922;SDS011;11627;51.322;22.816;2022-10-15T02:42:17;27.20;;;15.80;;
22922;SDS011;11627;51.322;22.816;2022-10-15T02:44:44;27.15;;;15.10;;
22922;SDS011;11627;51.322;22.816;2022-10-15T02:47:10;25.73;;;14.23;;
22922;SDS011;11627;51.322;22.816;2022-10-15T02:49:36;25.08;;;14.23;;
22922;SDS011;11627;51.322;22.816;2022-10-15T02:52:02;28.55;;;14.05;;
22922;SDS011;11627;51.322;22.816;2022-10-15T02:54:28;24.58;;;14.40;;
22922;SDS011;11627;51.322;22.816;2022-10-15T02:56:54;26.77;;;14.30;;
22922;SDS011;11627;51.322;22.816;2022-10-15T02:59:19;22.73;;;13.23;;
22922;SDS011;11627;51.322;22.816;2022-10-15T03:01:46;21.60;;;12.85;;
22922;SDS011;11627;51.322;22.816;2022-10-15T03:04:12;25.58;;;13.35;;
22922;SDS011;11627;51.322;22.816;2022-10-15T03:06:37;22.92;;;13.40;;
22922;SDS011;11627;51.322;22.816;2022-10-15T03:09:03;24.48;;;13.07;;
22922;SDS011;11627;51.322;22.816;2022-10-15T03:11:29;23.95;;;13.65;;
22922;SDS011;11627;51.322;22.816;2022-10-15T03:13:55;22.63;;;13.02;;
22922;SDS011;11627;51.322;22.816;2022-10-15T03:16:20;22.70;;;12.90;;
22922;SDS011;11627;51.322;22.816;2022-10-15T03:18:46;23.02;;;13.38;;
22922;SDS011;11627;51.322;22.816;2022-10-15T03:21:12;22.33;;;13.05;;
22922;SDS011;11627;51.322;22.816;2022-10-15T03:23:38;21.90;;;12.25;;
22922;SDS011;11627;51.322;22.816;2022-10-15T03:26:04;19.48;;;12.70;;
22922;SDS011;11627;51.322;22.816;2022-10-15T03:28:30;20.63;;;12.25;;
22922;SDS011;11627;51.322;22.816;2022-10-15T03:30:55;20.38;;;12.52;;
22922;SDS011;11627;51.322;22.816;2022-10-15T03:33:21;22.50;;;12.13;;
22922;SDS011;11627;51.322;22.816;2022-10-15T03:35:47;22.20;;;12.32;;
22922;SDS011;11627;51.322;22.816;2022-10-15T03:38:12;19.35;;;12.35;;
22922;SDS011;11627;51.322;22.816;2022-10-15T03:40:38;25.15;;;12.90;;
22922;SDS011;11627;51.322;22.816;2022-10-15T03:43:04;23.25;;;12.32;;
22922;SDS011;11627;51.322;22.816;2022-10-15T03:45:30;22.85;;;12.82;;
22922;SDS011;11627;51.322;22.816;2022-10-15T03:47:57;22.02;;;12.60;;
22922;SDS011;11627;51.322;22.816;2022-10-15T03:50:22;22.27;;;12.75;;
22922;SDS011;11627;51.322;22.816;2022-10-15T03:52:48;21.77;;;13.45;;
22922;SDS011;11627;51.322;22.816;2022-10-15T03:55:13;24.35;;;13.18;;
22922;SDS011;11627;51.322;22.816;2022-10-15T03:57:39;28.17;;;13.32;;
22922;SDS011;11627;51.322;22.816;2022-10-15T04:00:06;24.42;;;12.63;;
22922;SDS011;11627;51.322;22.816;2022-10-15T04:02:32;21.25;;;13.18;;
22922;SDS011;11627;51.322;22.816;2022-10-15T04:04:58;26.17;;;13.18;;
22922;SDS011;11627;51.322;22.816;2022-10-15T04:07:24;23.40;;;12.70;;
22922;SDS011;11627;51.322;22.816;2022-10-15T04:09:50;24.00;;;12.20;;
22922;SDS011;11627;51.322;22.816;2022-10-15T04:12:15;23.67;;;13.15;;
22922;SDS011;11627;51.322;22.816;2022-10-15T04:14:41;26.13;;;14.65;;
22922;SDS011;11627;51.322;22.816;2022-10-15T04:17:07;23.33;;;13.75;;
22922;SDS011;11627;51.322;22.816;2022-10-15T04:19:33;26.73;;;14.35;;
22922;SDS011;11627;51.322;22.816;2022-10-15T04:21:59;23.98;;;13.18;;
22922;SDS011;11627;51.322;22.816;2022-10-15T04:24:27;23.17;;;13.82;;
22922;SDS011;11627;51.322;22.816;2022-10-15T04:26:52;23.00;;;13.80;;
22922;SDS011;11627;51.322;22.816;2022-10-15T04:29:18;22.27;;;13.68;;
22922;SDS011;11627;51.322;22.816;2022-10-15T04:31:44;24.67;;;13.65;;
22922;SDS011;11627;51.322;22.816;2022-10-15T04:34:10;29.20;;;14.05;;
22922;SDS011;11627;51.322;22.816;2022-10-15T04:36:36;22.27;;;12.90;;
22922;SDS011;11627;51.322;22.816;2022-10-15T04:39:03;23.85;;;13.98;;
22922;SDS011;11627;51.322;22.816;2022-10-15T04:41:29;22.02;;;13.35;;
22922;SDS011;11627;51.322;22.816;2022-10-15T04:43:56;22.70;;;13.35;;
22922;SDS011;11627;51.322;22.816;2022-10-15T04:46:22;22.55;;;12.85;;
22922;SDS011;11627;51.322;22.816;2022-10-15T04:48:48;20.55;;;13.43;;
22922;SDS011;11627;51.322;22.816;2022-10-15T04:51:17;22.52;;;13.18;;
22922;SDS011;11627;51.322;22.816;2022-10-15T04:53:44;20.88;;;12.43;;
22922;SDS011;11627;51.322;22.816;2022-10-15T04:56:12;22.30;;;12.63;;
22922;SDS011;11627;51.322;22.816;2022-10-15T04:58:40;22.52;;;12.02;;
22922;SDS011;11627;51.322;22.816;2022-10-15T05:01:07;22.42;;;12.98;;
22922;SDS011;11627;51.322;22.816;2022-10-15T05:03:38;22.85;;;12.38;;
22922;SDS011;11627;51.322;22.816;2022-10-15T05:06:07;19.02;;;11.27;;
22922;SDS011;11627;51.322;22.816;2022-10-15T05:08:37;25.77;;;12.60;;
22922;SDS011;11627;51.322;22.816;2022-10-15T05:11:10;20.13;;;11.98;;
22922;SDS011;11627;51.322;22.816;2022-10-15T05:13:46;20.23;;;11.40;;
22922;SDS011;11627;51.322;22.816;2022-10-15T05:18:39;18.25;;;11.52;;
22922;SDS011;11627;51.322;22.816;2022-10-15T05:21:05;20.30;;;11.70;;
22922;SDS011;11627;51.322;22.816;2022-10-15T05:23:31;23.08;;;12.43;;
22922;SDS011;11627;51.322;22.816;2022-10-15T05:26:00;27.08;;;12.52;;
22922;SDS011;11627;51.322;22.816;2022-10-15T05:28:28;22.13;;;11.88;;
22922;SDS011;11627;51.322;22.816;2022-10-15T05:30:54;20.63;;;11.45;;
22922;SDS011;11627;51.322;22.816;2022-10-15T05:33:20;21.88;;;12.27;;
22922;SDS011;11627;51.322;22.816;2022-10-15T05:35:45;21.83;;;11.75;;
22922;SDS011;11627;51.322;22.816;2022-10-15T05:38:11;19.27;;;12.35;;
22922;SDS011;11627;51.322;22.816;2022-10-15T05:40:37;22.27;;;12.57;;
22922;SDS011;11627;51.322;22.816;2022-10-15T05:43:02;21.45;;;11.70;;
22922;SDS011;11627;51.322;22.816;2022-10-15T05:45:28;20.98;;;10.60;;
22922;SDS011;11627;51.322;22.816;2022-10-15T05:47:54;19.88;;;11.20;;
22922;SDS011;11627;51.322;22.816;2022-10-15T05:50:21;20.02;;;10.80;;
22922;SDS011;11627;51.322;22.816;2022-10-15T05:52:47;19.25;;;11.10;;
22922;SDS011;11627;51.322;22.816;2022-10-15T05:55:13;20.67;;;11.15;;
22922;SDS011;11627;51.322;22.816;2022-10-15T05:57:39;20.23;;;11.52;;
22922;SDS011;11627;51.322;22.816;2022-10-15T06:00:05;20.65;;;11.68;;
22922;SDS011;11627;51.322;22.816;2022-10-15T06:02:32;18.60;;;11.23;;
22922;SDS011;11627;51.322;22.816;2022-10-15T06:04:57;18.48;;;11.85;;
22922;SDS011;11627;51.322;22.816;2022-10-15T06:07:23;19.77;;;11.00;;
22922;SDS011;11627;51.322;22.816;2022-10-15T06:09:49;22.75;;;11.50;;
22922;SDS011;11627;51.322;22.816;2022-10-15T06:12:14;22.50;;;11.43;;
22922;SDS011;11627;51.322;22.816;2022-10-15T06:14:40;21.10;;;11.63;;
22922;SDS011;11627;51.322;22.816;2022-10-15T06:17:05;18.05;;;11.13;;
22922;SDS011;11627;51.322;22.816;2022-10-15T06:19:31;19.95;;;11.90;;
22922;SDS011;11627;51.322;22.816;2022-10-15T06:21:57;16.50;;;10.38;;
22922;SDS011;11627;51.322;22.816;2022-10-15T06:24:23;18.38;;;10.82;;
22922;SDS011;11627;51.322;22.816;2022-10-15T06:26:48;22.45;;;11.68;;
22922;SDS011;11627;51.322;22.816;2022-10-15T06:29:15;18.73;;;11.32;;
22922;SDS011;11627;51.322;22.816;2022-10-15T06:31:41;17.85;;;11.27;;
22922;SDS011;11627;51.322;22.816;2022-10-15T06:34:06;18.67;;;11.38;;
22922;SDS011;11627;51.322;22.816;2022-10-15T06:36:32;23.58;;;11.93;;
22922;SDS011;11627;51.322;22.816;2022-10-15T06:38:58;18.05;;;10.75;;
22922;SDS011;11627;51.322;22.816;2022-10-15T06:41:24;18.92;;;10.90;;
22922;SDS011;11627;51.322;22.816;2022-10-15T06:43:49;19.88;;;11.50;;
22922;SDS011;11627;51.322;22.816;2022-10-15T06:46:16;17.42;;;10.57;;
22922;SDS011;11627;51.322;22.816;2022-10-15T06:48:41;18.90;;;11.07;;
22922;SDS011;11627;51.322;22.816;2022-10-15T06:51:07;18.33;;;11.15;;
22922;SDS011;11627;51.322;22.816;2022-10-15T06:53:33;16.88;;;10.93;;
22922;SDS011;11627;51.322;22.816;2022-10-15T06:56:00;19.20;;;10.70;;
22922;SDS011;11627;51.322;22.816;2022-10-15T06:58:26;17.10;;;10.60;;
22922;SDS011;11627;51.322;22.816;2022-10-15T07:00:52;18.65;;;10.93;;
22922;SDS011;11627;51.322;22.816;2022-10-15T07:03:30;20.50;;;11.45;;
22922;SDS011;11627;51.322;22.816;2022-10-15T07:06:00;19.70;;;10.95;;
22922;SDS011;11627;51.322;22.816;2022-10-15T07:08:27;18.70;;;10.57;;
22922;SDS011;11627;51.322;22.816;2022-10-15T07:10:53;23.00;;;12.23;;
22922;SDS011;11627;51.322;22.816;2022-10-15T07:13:19;22.35;;;10.85;;
22922;SDS011;11627;51.322;22.816;2022-10-15T07:15:44;23.77;;;11.35;;
22922;SDS011;11627;51.322;22.816;2022-10-15T07:18:11;21.17;;;11.30;;
22922;SDS011;11627;51.322;22.816;2022-10-15T07:20:36;20.77;;;11.52;;
22922;SDS011;11627;51.322;22.816;2022-10-15T07:23:02;21.65;;;11.43;;
22922;SDS011;11627;51.322;22.816;2022-10-15T07:25:28;17.10;;;10.82;;
22922;SDS011;11627;51.322;22.816;2022-10-15T07:27:54;16.30;;;10.98;;
22922;SDS011;11627;51.322;22.816;2022-10-15T07:30:21;20.65;;;11.15;;
22922;SDS011;11627;51.322;22.816;2022-10-15T07:32:47;16.73;;;10.75;;
22922;SDS011;11627;51.322;22.816;2022-10-15T07:35:13;16.73;;;10.85;;
22922;SDS011;11627;51.322;22.816;2022-10-15T07:37:39;18.60;;;10.73;;
22922;SDS011;11627;51.322;22.816;2022-10-15T07:40:05;19.65;;;10.60;;
22922;SDS011;11627;51.322;22.816;2022-10-15T07:42:31;17.55;;;10.48;;
22922;SDS011;11627;51.322;22.816;2022-10-15T07:44:57;18.60;;;10.68;;
22922;SDS011;11627;51.322;22.816;2022-10-15T07:47:23;18.77;;;10.48;;
22922;SDS011;11627;51.322;22.816;2022-10-15T07:49:49;19.10;;;11.32;;
22922;SDS011;11627;51.322;22.816;2022-10-15T07:52:15;15.40;;;9.95;;
22922;SDS011;11627;51.322;22.816;2022-10-15T07:54:40;17.30;;;10.95;;
22922;SDS011;11627;51.322;22.816;2022-10-15T07:57:06;18.67;;;10.90;;
22922;SDS011;11627;51.322;22.816;2022-10-15T07:59:33;16.02;;;10.43;;
22922;SDS011;11627;51.322;22.816;2022-10-15T08:01:59;16.38;;;10.70;;
22922;SDS011;11627;51.322;22.816;2022-10-15T08:04:24;18.33;;;10.05;;
22922;SDS011;11627;51.322;22.816;2022-10-15T08:06:50;17.65;;;10.48;;
22922;SDS011;11627;51.322;22.816;2022-10-15T08:09:16;15.68;;;9.88;;
22922;SDS011;11627;51.322;22.816;2022-10-15T08:11:42;16.00;;;9.98;;
22922;SDS011;11627;51.322;22.816;2022-10-15T08:14:08;16.00;;;9.85;;
22922;SDS011;11627;51.322;22.816;2022-10-15T08:16:34;18.30;;;10.82;;
22922;SDS011;11627;51.322;22.816;2022-10-15T08:18:59;17.48;;;10.32;;
22922;SDS011;11627;51.322;22.816;2022-10-15T08:21:25;14.90;;;10.57;;
22922;SDS011;11627;51.322;22.816;2022-10-15T08:23:51;16.13;;;10.50;;
22922;SDS011;11627;51.322;22.816;2022-10-15T08:26:17;17.30;;;9.75;;
22922;SDS011;11627;51.322;22.816;2022-10-15T08:28:42;17.73;;;9.63;;
22922;SDS011;11627;51.322;22.816;2022-10-15T08:31:08;21.25;;;10.18;;
22922;SDS011;11627;51.322;22.816;2022-10-15T08:33:34;17.65;;;11.07;;
22922;SDS011;11627;51.322;22.816;2022-10-15T08:36:05;19.40;;;10.43;;
22922;SDS011;11627;51.322;22.816;2022-10-15T08:38:32;18.45;;;10.35;;
22922;SDS011;11627;51.322;22.816;2022-10-15T08:40:59;17.98;;;10.25;;
22922;SDS011;11627;51.322;22.816;2022-10-15T08:43:36;18.20;;;10.98;;
22922;SDS011;11627;51.322;22.816;2022-10-15T08:46:12;17.48;;;10.40;;
22922;SDS011;11627;51.322;22.816;2022-10-15T08:48:50;19.58;;;10.95;;
22922;SDS011;11627;51.322;22.816;2022-10-15T08:51:19;15.73;;;9.75;;
22922;SDS011;11627;51.322;22.816;2022-10-15T08:53:49;19.40;;;10.70;;
22922;SDS011;11627;51.322;22.816;2022-10-15T08:56:35;18.70;;;9.90;;
22922;SDS011;11627;51.322;22.816;2022-10-15T09:02:02;15.45;;;9.93;;
22922;SDS011;11627;51.322;22.816;2022-10-15T09:13:17;20.95;;;10.73;;
22922;SDS011;11627;51.322;22.816;2022-10-15T09:16:03;14.65;;;10.43;;
22922;SDS011;11627;51.322;22.816;2022-10-15T09:18:51;19.85;;;10.50;;
22922;SDS011;11627;51.322;22.816;2022-10-15T09:21:18;19.92;;;11.15;;
22922;SDS011;11627;51.322;22.816;2022-10-15T09:23:46;17.42;;;10.02;;
22922;SDS011;11627;51.322;22.816;2022-10-15T09:26:25;15.38;;;10.02;;
22922;SDS011;11627;51.322;22.816;2022-10-15T09:29:13;19.55;;;10.55;;
22922;SDS011;11627;51.322;22.816;2022-10-15T09:34:33;18.92;;;10.40;;
22922;SDS011;11627;51.322;22.816;2022-10-15T09:37:05;18.90;;;10.55;;
22922;SDS011;11627;51.322;22.816;2022-10-15T09:40:14;21.92;;;10.80;;
22922;SDS011;11627;51.322;22.816;2022-10-15T09:43:03;16.40;;;10.95;;
22922;SDS011;11627;51.322;22.816;2022-10-15T09:45:29;16.05;;;10.80;;
22922;SDS011;11627;51.322;22.816;2022-10-15T09:47:56;19.35;;;11.15;;
22922;SDS011;11627;51.322;22.816;2022-10-15T09:50:59;19.92;;;10.55;;
22922;SDS011;11627;51.322;22.816;2022-10-15T10:01:31;18.15;;;10.35;;
22922;SDS011;11627;51.322;22.816;2022-10-15T10:04:15;19.30;;;11.15;;
22922;SDS011;11627;51.322;22.816;2022-10-15T10:06:50;17.60;;;10.45;;
22922;SDS011;11627;51.322;22.816;2022-10-15T10:12:01;16.00;;;10.07;;
22922;SDS011;11627;51.322;22.816;2022-10-15T10:14:43;17.27;;;10.57;;
22922;SDS011;11627;51.322;22.816;2022-10-15T10:17:18;22.38;;;10.88;;
22922;SDS011;11627;51.322;22.816;2022-10-15T10:20:01;24.13;;;11.30;;
22922;SDS011;11627;51.322;22.816;2022-10-15T10:28:44;17.58;;;11.13;;
22922;SDS011;11627;51.322;22.816;2022-10-15T10:31:14;22.60;;;12.07;;
22922;SDS011;11627;51.322;22.816;2022-10-15T10:36:18;20.15;;;12.23;;
22922;SDS011;11627;51.322;22.816;2022-10-15T10:38:55;22.60;;;12.65;;
22922;SDS011;11627;51.322;22.816;2022-10-15T10:44:36;22.98;;;12.35;;
22922;SDS011;11627;51.322;22.816;2022-10-15T10:49:33;25.10;;;12.82;;
22922;SDS011;11627;51.322;22.816;2022-10-15T10:52:01;21.40;;;13.30;;
22922;SDS011;11627;51.322;22.816;2022-10-15T10:54:28;21.27;;;12.05;;
22922;SDS011;11627;51.322;22.816;2022-10-15T10:56:55;21.35;;;12.48;;
22922;SDS011;11627;51.322;22.816;2022-10-15T11:01:58;30.35;;;14.90;;
22922;SDS011;11627;51.322;22.816;2022-10-15T11:31:33;19.50;;;12.48;;
22922;SDS011;11627;51.322;22.816;2022-10-15T11:37:17;54.20;;;26.35;;
22922;SDS011;11627;51.322;22.816;2022-10-15T11:40:17;51.13;;;27.67;;
22922;SDS011;11627;51.322;22.816;2022-10-15T11:43:03;89.10;;;40.92;;
22922;SDS011;11627;51.322;22.816;2022-10-15T11:52:00;23.65;;;14.45;;
22922;SDS011;11627;51.322;22.816;2022-10-15T11:54:56;33.42;;;17.90;;
22922;SDS011;11627;51.322;22.816;2022-10-15T11:57:46;22.63;;;13.60;;
22922;SDS011;11627;51.322;22.816;2022-10-15T12:02:59;47.70;;;22.30;;
22922;SDS011;11627;51.322;22.816;2022-10-15T12:08:41;23.20;;;14.25;;
22922;SDS011;11627;51.322;22.816;2022-10-15T12:11:30;20.13;;;13.05;;
22922;SDS011;11627;51.322;22.816;2022-10-15T12:20:08;19.98;;;11.85;;
22922;SDS011;11627;51.322;22.816;2022-10-15T12:28:10;20.35;;;12.45;;
22922;SDS011;11627;51.322;22.816;2022-10-15T12:30:42;21.30;;;13.35;;
22922;SDS011;11627;51.322;22.816;2022-10-15T12:35:57;18.55;;;12.57;;
22922;SDS011;11627;51.322;22.816;2022-10-15T12:40:57;19.67;;;12.82;;
22922;SDS011;11627;51.322;22.816;2022-10-15T12:43:27;19.50;;;11.98;;
22922;SDS011;11627;51.322;22.816;2022-10-15T12:46:02;24.95;;;12.30;;
22922;SDS011;11627;51.322;22.816;2022-10-15T12:48:39;21.83;;;13.02;;
22922;SDS011;11627;51.322;22.816;2022-10-15T12:53:49;23.23;;;12.50;;
22922;SDS011;11627;51.322;22.816;2022-10-15T12:58:51;20.70;;;13.80;;
22922;SDS011;11627;51.322;22.816;2022-10-15T13:08:46;27.25;;;12.35;;
22922;SDS011;11627;51.322;22.816;2022-10-15T13:14:10;22.40;;;13.10;;
22922;SDS011;11627;51.322;22.816;2022-10-15T13:16:54;20.75;;;12.90;;
22922;SDS011;11627;51.322;22.816;2022-10-15T13:19:23;20.00;;;12.32;;
22922;SDS011;11627;51.322;22.816;2022-10-15T13:21:53;24.75;;;12.63;;
22922;SDS011;11627;51.322;22.816;2022-10-15T13:24:22;22.63;;;13.38;;
22922;SDS011;11627;51.322;22.816;2022-10-15T13:26:50;20.63;;;12.95;;
22922;SDS011;11627;51.322;22.816;2022-10-15T13:29:18;20.48;;;13.13;;
22922;SDS011;11627;51.322;22.816;2022-10-15T13:31:49;19.65;;;12.68;;
22922;SDS011;11627;51.322;22.816;2022-10-15T13:34:32;25.08;;;12.68;;
22922;SDS011;11627;51.322;22.816;2022-10-15T13:37:01;19.15;;;12.70;;
22922;SDS011;11627;51.322;22.816;2022-10-15T13:39:35;19.92;;;13.07;;
22922;SDS011;11627;51.322;22.816;2022-10-15T13:42:12;18.85;;;12.80;;
22922;SDS011;11627;51.322;22.816;2022-10-15T13:44:54;24.48;;;14.15;;
22922;SDS011;11627;51.322;22.816;2022-10-15T13:47:25;19.63;;;11.75;;
22922;SDS011;11627;51.322;22.816;2022-10-15T13:49:51;21.00;;;13.13;;
22922;SDS011;11627;51.322;22.816;2022-10-15T13:55:34;23.00;;;13.65;;
22922;SDS011;11627;51.322;22.816;2022-10-15T14:01:13;22.98;;;14.50;;
22922;SDS011;11627;51.322;22.816;2022-10-15T14:03:57;26.27;;;14.32;;
22922;SDS011;11627;51.322;22.816;2022-10-15T14:08:51;27.38;;;14.68;;
22922;SDS011;11627;51.322;22.816;2022-10-15T14:11:18;26.70;;;14.15;;
22922;SDS011;11627;51.322;22.816;2022-10-15T14:16:54;23.00;;;14.38;;
22922;SDS011;11627;51.322;22.816;2022-10-15T14:19:22;27.10;;;15.50;;
22922;SDS011;11627;51.322;22.816;2022-10-15T14:21:54;24.40;;;13.43;;
22922;SDS011;11627;51.322;22.816;2022-10-15T14:24:21;25.35;;;14.70;;
22922;SDS011;11627;51.322;22.816;2022-10-15T14:26:51;27.58;;;17.13;;
22922;SDS011;11627;51.322;22.816;2022-10-15T14:31:47;38.20;;;21.23;;
22922;SDS011;11627;51.322;22.816;2022-10-15T14:34:30;35.38;;;19.83;;
22922;SDS011;11627;51.322;22.816;2022-10-15T14:36:59;35.72;;;19.52;;
22922;SDS011;11627;51.322;22.816;2022-10-15T14:39:35;35.40;;;19.17;;
22922;SDS011;11627;51.322;22.816;2022-10-15T14:42:05;44.63;;;22.48;;
22922;SDS011;11627;51.322;22.816;2022-10-15T14:44:49;55.40;;;24.08;;
22922;SDS011;11627;51.322;22.816;2022-10-15T14:47:20;50.40;;;23.73;;
22922;SDS011;11627;51.322;22.816;2022-10-15T14:49:54;46.83;;;20.95;;
22922;SDS011;11627;51.322;22.816;2022-10-15T14:52:23;44.78;;;19.90;;
22922;SDS011;11627;51.322;22.816;2022-10-15T14:55:03;38.55;;;20.63;;
22922;SDS011;11627;51.322;22.816;2022-10-15T14:57:40;28.45;;;17.27;;
22922;SDS011;11627;51.322;22.816;2022-10-15T15:00:16;28.98;;;16.40;;
22922;SDS011;11627;51.322;22.816;2022-10-15T15:02:49;28.27;;;16.85;;
22922;SDS011;11627;51.322;22.816;2022-10-15T15:05:19;34.53;;;17.25;;
22922;SDS011;11627;51.322;22.816;2022-10-15T15:07:48;27.90;;;16.30;;
22922;SDS011;11627;51.322;22.816;2022-10-15T15:10:14;29.63;;;16.55;;
22922;SDS011;11627;51.322;22.816;2022-10-15T15:12:40;29.80;;;17.67;;
22922;SDS011;11627;51.322;22.816;2022-10-15T15:15:14;29.38;;;16.88;;
22922;SDS011;11627;51.322;22.816;2022-10-15T15:17:41;29.48;;;16.23;;
22922;SDS011;11627;51.322;22.816;2022-10-15T15:20:08;28.75;;;16.90;;
22922;SDS011;11627;51.322;22.816;2022-10-15T15:22:34;35.78;;;19.80;;
22922;SDS011;11627;51.322;22.816;2022-10-15T15:25:47;41.03;;;21.08;;
22922;SDS011;11627;51.322;22.816;2022-10-15T15:27:58;75.30;;;30.40;;
22922;SDS011;11627;51.322;22.816;2022-10-15T15:30:26;107.53;;;42.10;;
22922;SDS011;11627;51.322;22.816;2022-10-15T15:32:53;193.02;;;75.93;;
22922;SDS011;11627;51.322;22.816;2022-10-15T15:35:34;318.10;;;127.35;;
22922;SDS011;11627;51.322;22.816;2022-10-15T15:38:19;336.20;;;134.38;;
22922;SDS011;11627;51.322;22.816;2022-10-15T15:40:47;269.80;;;105.63;;
22922;SDS011;11627;51.322;22.816;2022-10-15T15:43:14;362.88;;;144.00;;
22922;SDS011;11627;51.322;22.816;2022-10-15T15:45:41;388.17;;;151.38;;
22922;SDS011;11627;51.322;22.816;2022-10-15T15:48:07;315.08;;;121.22;;
22922;SDS011;11627;51.322;22.816;2022-10-15T15:50:34;304.55;;;116.13;;
22922;SDS011;11627;51.322;22.816;2022-10-15T15:53:00;295.33;;;124.22;;
22922;SDS011;11627;51.322;22.816;2022-10-15T15:55:27;320.58;;;144.63;;
22922;SDS011;11627;51.322;22.816;2022-10-15T15:57:53;498.95;;;242.82;;
22922;SDS011;11627;51.322;22.816;2022-10-15T16:00:18;448.95;;;218.80;;
22922;SDS011;11627;51.322;22.816;2022-10-15T16:02:44;235.27;;;110.15;;
22922;SDS011;11627;51.322;22.816;2022-10-15T16:05:11;176.68;;;83.18;;
22922;SDS011;11627;51.322;22.816;2022-10-15T16:07:39;102.47;;;50.78;;
22922;SDS011;11627;51.322;22.816;2022-10-15T16:10:05;73.63;;;35.33;;
22922;SDS011;11627;51.322;22.816;2022-10-15T16:12:33;53.95;;;28.75;;
22922;SDS011;11627;51.322;22.816;2022-10-15T16:14:59;50.30;;;25.60;;
22922;SDS011;11627;51.322;22.816;2022-10-15T16:17:25;41.95;;;23.35;;
22922;SDS011;11627;51.322;22.816;2022-10-15T16:19:51;48.03;;;23.30;;
22922;SDS011;11627;51.322;22.816;2022-10-15T16:22:17;41.92;;;23.45;;
22922;SDS011;11627;51.322;22.816;2022-10-15T16:24:43;40.13;;;21.30;;
22922;SDS011;11627;51.322;22.816;2022-10-15T16:27:08;37.47;;;21.55;;
22922;SDS011;11627;51.322;22.816;2022-10-15T16:29:34;37.92;;;22.10;;
22922;SDS011;11627;51.322;22.816;2022-10-15T16:32:00;47.25;;;23.80;;
22922;SDS011;11627;51.322;22.816;2022-10-15T16:34:26;48.10;;;23.13;;
22922;SDS011;11627;51.322;22.816;2022-10-15T16:36:51;54.70;;;25.77;;
22922;SDS011;11627;51.322;22.816;2022-10-15T16:39:17;49.72;;;24.38;;
22922;SDS011;11627;51.322;22.816;2022-10-15T16:41:43;44.83;;;23.35;;
22922;SDS011;11627;51.322;22.816;2022-10-15T16:44:09;50.08;;;24.60;;
22922;SDS011;11627;51.322;22.816;2022-10-15T16:46:34;43.78;;;23.48;;
22922;SDS011;11627;51.322;22.816;2022-10-15T16:49:00;46.15;;;24.48;;
22922;SDS011;11627;51.322;22.816;2022-10-15T16:51:26;50.75;;;24.02;;
22922;SDS011;11627;51.322;22.816;2022-10-15T16:53:52;46.55;;;23.73;;
22922;SDS011;11627;51.322;22.816;2022-10-15T16:56:26;46.35;;;23.88;;
22922;SDS011;11627;51.322;22.816;2022-10-15T16:58:53;48.13;;;24.30;;
22922;SDS011;11627;51.322;22.816;2022-10-15T17:01:23;50.90;;;24.08;;
22922;SDS011;11627;51.322;22.816;2022-10-15T17:03:50;43.42;;;22.48;;